Burlington (BTV/KBTV)

Map

Destinations

Information

Location
Burlington, VT
Local Time
07:49 / 7:49 am
GMT Time
12:49 / 12:49 pm
Gates
Unassigned
No FAA reported delays
METAR KBTV 161154Z 00000KT 10SM FEW100 M12/M14 A3036 RMK AO2 SLP287 T11171139 11089 21117 56006
TAF KBTV 161131Z 1612/1712 18004KT P6SM FEW100 FM161500 18011G20KT P6SM FEW150 FM162300 19007KT P6SM SKC FM170400 VRB03KT P6SM SCT100
  • No charts available